createdAt,value
2023-04-16T00:01:28.391Z,25.80
2023-04-16T00:03:55.785Z,23.27
2023-04-16T00:06:23.196Z,24.30
2023-04-16T00:08:50.417Z,24.80
2023-04-16T00:11:17.302Z,24.63
2023-04-16T00:13:43.782Z,24.60
2023-04-16T00:16:10.299Z,27.10
2023-04-16T00:18:36.720Z,25.13
2023-04-16T00:21:03.306Z,24.33
2023-04-16T00:23:29.778Z,24.45
2023-04-16T00:25:59.991Z,26.98
2023-04-16T00:28:27.669Z,24.85
2023-04-16T00:30:54.642Z,26.23
2023-04-16T00:33:21.834Z,23.90
2023-04-16T00:35:48.608Z,24.05
2023-04-16T00:40:41.435Z,23.58
2023-04-16T00:43:07.924Z,23.75
2023-04-16T00:45:34.915Z,22.60
2023-04-16T00:48:02.008Z,25.75
2023-04-16T00:50:29.452Z,24.17
2023-04-16T00:52:56.880Z,24.27
2023-04-16T00:55:23.561Z,25.42
2023-04-16T00:57:50.041Z,26.63
2023-04-16T01:00:16.927Z,23.58
2023-04-16T01:02:43.614Z,23.90
2023-04-16T01:07:41.065Z,22.08
2023-04-16T01:10:09.218Z,24.20
2023-04-16T01:12:35.867Z,23.48
2023-04-16T01:15:03.156Z,23.90
2023-04-16T01:17:29.699Z,22.17
2023-04-16T01:20:00.126Z,23.48
2023-04-16T01:22:28.543Z,23.55
2023-04-16T01:24:55.615Z,24.90
2023-04-16T01:27:26.071Z,23.83
2023-04-16T01:29:52.814Z,23.75
2023-04-16T01:34:45.958Z,21.98
2023-04-16T01:51:15.032Z,26.90
2023-04-16T01:53:41.597Z,26.08
2023-04-16T01:56:08.585Z,25.27
2023-04-16T01:58:37.995Z,26.05
2023-04-16T02:01:07.863Z,25.48
2023-04-16T02:03:35.332Z,25.48
2023-04-16T02:06:02.256Z,26.98
2023-04-16T02:10:56.848Z,26.58
2023-04-16T02:13:25.701Z,26.73
2023-04-16T02:15:52.980Z,27.00
2023-04-16T02:18:19.671Z,26.35
2023-04-16T02:20:50.001Z,28.38
2023-04-16T02:23:19.930Z,26.40
2023-04-16T02:25:47.524Z,27.48
2023-04-16T02:28:18.307Z,27.30
2023-04-16T02:30:45.263Z,28.80
2023-04-16T02:33:13.377Z,28.67
2023-04-16T02:35:40.888Z,25.55
2023-04-16T02:38:08.504Z,27.02
2023-04-16T02:40:35.339Z,25.15
2023-04-16T02:45:28.757Z,25.95
2023-04-16T02:47:55.583Z,25.73
2023-04-16T02:52:48.942Z,26.38
2023-04-16T02:55:16.472Z,27.02
2023-04-16T02:57:43.226Z,24.58
2023-04-16T03:02:37.016Z,25.30
2023-04-16T03:07:30.246Z,24.92
2023-04-16T03:09:56.909Z,23.27
2023-04-16T03:12:23.481Z,25.95
2023-04-16T03:14:51.699Z,25.63
2023-04-16T03:17:18.127Z,25.10
2023-04-16T03:19:44.610Z,23.85
2023-04-16T03:22:11.131Z,24.95
2023-04-16T03:24:38.250Z,22.98
2023-04-16T03:27:04.687Z,23.98
2023-04-16T03:29:31.109Z,22.35
2023-04-16T03:31:57.752Z,22.13
2023-04-16T03:36:50.646Z,21.95
2023-04-16T03:39:17.128Z,22.75
2023-04-16T03:41:43.550Z,22.80
2023-04-16T03:44:09.990Z,22.65
2023-04-16T03:46:36.592Z,23.35
2023-04-16T03:49:03.084Z,22.60
2023-04-16T03:51:29.616Z,24.85
2023-04-16T03:53:56.073Z,24.88
2023-04-16T03:56:22.497Z,25.98
2023-04-16T03:58:49.010Z,23.08
2023-04-16T04:01:15.449Z,26.17
2023-04-16T04:03:42.323Z,27.52
2023-04-16T04:06:09.495Z,24.75
2023-04-16T04:08:36.040Z,27.50
2023-04-16T04:11:02.468Z,25.90
2023-04-16T04:13:28.932Z,29.13
2023-04-16T04:15:55.467Z,26.92
2023-04-16T04:18:22.007Z,28.02
2023-04-16T04:20:48.564Z,26.33
2023-04-16T04:23:15.037Z,25.92
2023-04-16T04:25:41.458Z,28.65
2023-04-16T04:28:07.932Z,27.48
2023-04-16T04:30:35.888Z,25.35
2023-04-16T04:33:02.713Z,23.63
2023-04-16T04:35:29.176Z,27.05
2023-04-16T04:37:55.754Z,26.17
2023-04-16T04:40:22.419Z,25.63
2023-04-16T04:42:49.084Z,25.92
2023-04-16T04:45:16.084Z,25.63
2023-04-16T04:47:42.691Z,25.35
2023-04-16T04:50:09.691Z,26.00
2023-04-16T04:52:36.333Z,27.13
2023-04-16T04:55:02.782Z,25.42
2023-04-16T04:57:29.257Z,24.38
2023-04-16T04:59:55.936Z,25.45
2023-04-16T05:02:22.519Z,25.15
2023-04-16T05:07:16.467Z,22.60
2023-04-16T05:09:42.895Z,23.60
2023-04-16T05:12:09.314Z,23.20
2023-04-16T05:14:36.473Z,21.77
2023-04-16T05:17:03.081Z,23.42
2023-04-16T05:19:29.721Z,22.35
2023-04-16T05:21:56.288Z,22.63
2023-04-16T05:24:23.312Z,22.48
2023-04-16T05:26:49.811Z,23.08
2023-04-16T05:29:16.247Z,22.42
2023-04-16T05:31:42.767Z,23.27
2023-04-16T05:34:09.300Z,23.17
2023-04-16T05:36:35.806Z,22.80
2023-04-16T05:39:02.278Z,24.30
2023-04-16T05:41:28.923Z,22.58
2023-04-16T05:43:55.373Z,25.05
2023-04-16T05:46:21.865Z,23.48
2023-04-16T05:48:48.383Z,24.38
2023-04-16T05:51:14.853Z,22.50
2023-04-16T05:53:41.812Z,24.60
2023-04-16T05:56:08.451Z,24.77
2023-04-16T05:58:34.952Z,24.92
2023-04-16T06:01:04.506Z,24.90
2023-04-16T06:03:31.214Z,23.35
2023-04-16T06:08:24.314Z,24.60
2023-04-16T06:10:51.271Z,24.63
2023-04-16T06:13:17.730Z,23.95
2023-04-16T06:15:44.189Z,23.83
2023-04-16T06:18:10.712Z,25.67
2023-04-16T06:20:37.205Z,24.60
2023-04-16T06:23:03.629Z,23.65
2023-04-16T06:25:30.134Z,23.83
2023-04-16T06:27:56.614Z,25.25
2023-04-16T06:30:23.104Z,24.02
2023-04-16T06:32:49.847Z,23.38
2023-04-16T06:38:58.538Z,26.55
2023-04-16T06:41:26.794Z,23.90
2023-04-16T06:43:53.309Z,24.75
2023-04-16T06:46:32.638Z,24.10
2023-04-16T06:48:59.121Z,24.85
2023-04-16T06:51:26.769Z,24.10
2023-04-16T06:53:53.246Z,24.92
2023-04-16T06:56:19.739Z,22.63
2023-04-16T06:58:46.187Z,23.88
2023-04-16T07:01:12.728Z,23.65
2023-04-16T07:03:39.566Z,24.15
2023-04-16T07:06:24.214Z,23.98
2023-04-16T07:08:50.766Z,23.90
2023-04-16T07:11:19.031Z,25.33
2023-04-16T07:13:45.527Z,23.88
2023-04-16T07:16:12.161Z,23.38
2023-04-16T07:21:05.266Z,22.17
2023-04-16T07:23:31.797Z,23.85
2023-04-16T07:25:58.220Z,23.05
2023-04-16T07:28:25.520Z,22.15
2023-04-16T07:30:52.035Z,23.90
2023-04-16T07:33:18.612Z,24.45
2023-04-16T07:35:45.482Z,24.23
2023-04-16T07:38:11.979Z,21.02
2023-04-16T07:40:38.522Z,23.35
2023-04-16T07:43:04.959Z,22.83
2023-04-16T07:45:31.396Z,21.52
2023-04-16T07:47:57.890Z,21.88
2023-04-16T07:50:25.472Z,21.63
2023-04-16T07:52:51.924Z,21.45
2023-04-16T07:55:18.409Z,22.98
2023-04-16T07:57:44.835Z,21.45
2023-04-16T08:00:11.782Z,22.00
2023-04-16T08:02:38.608Z,22.38
2023-04-16T08:05:05.599Z,21.73
2023-04-16T08:07:33.332Z,20.55
2023-04-16T08:10:00.986Z,21.38
2023-04-16T08:12:27.483Z,21.10
2023-04-16T08:14:53.914Z,19.38
2023-04-16T08:17:20.376Z,19.77
2023-04-16T08:19:46.996Z,22.20
2023-04-16T08:22:13.895Z,20.52
2023-04-16T13:34:39.474Z,9.38
2023-04-16T13:37:06.394Z,9.63
2023-04-16T13:39:33.722Z,8.98
2023-04-16T13:42:00.340Z,8.70
2023-04-16T13:44:26.878Z,8.68
2023-04-16T13:46:53.538Z,8.65
2023-04-16T13:49:20.295Z,8.75
2023-04-16T13:54:13.138Z,7.30
2023-04-16T13:56:39.851Z,7.65
2023-04-16T14:01:33.070Z,8.45
2023-04-16T14:04:05.983Z,7.88
2023-04-16T14:06:33.564Z,8.40
2023-04-16T14:09:00.053Z,8.55
2023-04-16T14:11:26.700Z,7.88
2023-04-16T14:13:53.209Z,8.43
2023-04-16T14:16:19.887Z,7.55
2023-04-16T14:21:13.439Z,7.28
2023-04-16T14:23:39.916Z,6.07
2023-04-16T14:26:06.409Z,6.45
2023-04-16T14:28:33.072Z,6.22
2023-04-16T14:30:59.467Z,6.78
2023-04-16T14:33:26.058Z,6.60
2023-04-16T14:35:52.658Z,5.90
2023-04-16T14:38:19.110Z,6.57
2023-04-16T14:40:45.681Z,6.38
2023-04-16T14:43:12.247Z,7.65
2023-04-16T14:45:39.149Z,7.95
2023-04-16T14:48:06.307Z,6.93
2023-04-16T14:50:37.920Z,6.40
2023-04-16T14:53:07.456Z,6.43
2023-04-16T14:55:33.920Z,6.35
2023-04-16T14:58:00.392Z,6.15
2023-04-16T15:00:27.554Z,6.25
2023-04-16T15:02:55.053Z,6.18
2023-04-16T15:05:22.141Z,6.13
2023-04-16T15:07:48.607Z,5.68
2023-04-16T15:10:15.132Z,6.68
2023-04-16T15:12:41.571Z,7.07
2023-04-16T15:15:09.041Z,6.30
2023-04-16T15:17:35.719Z,6.80
2023-04-16T15:20:02.704Z,6.35
2023-04-16T15:22:29.246Z,6.40
2023-04-16T15:24:55.998Z,6.78
2023-04-16T15:29:49.579Z,6.47
2023-04-16T15:32:16.213Z,6.63
2023-04-16T15:34:42.698Z,6.53
2023-04-16T15:37:09.743Z,7.40
2023-04-16T15:39:36.364Z,7.32
2023-04-16T15:42:06.988Z,7.18
2023-04-16T15:44:34.739Z,7.97
2023-04-16T15:47:01.374Z,6.47
2023-04-16T15:49:27.974Z,7.45
2023-04-16T15:51:55.595Z,6.93
2023-04-16T15:54:26.337Z,8.18
2023-04-16T15:56:52.862Z,7.97
2023-04-16T15:59:19.333Z,8.65
2023-04-16T16:01:46.076Z,8.75
2023-04-16T16:06:39.286Z,8.90
2023-04-16T16:09:06.253Z,9.13
2023-04-16T16:11:32.807Z,9.68
2023-04-16T16:14:01.471Z,9.55
2023-04-16T16:16:28.662Z,8.88
2023-04-16T16:19:15.815Z,10.93
2023-04-16T16:21:42.926Z,9.40
2023-04-16T16:24:09.657Z,10.10
2023-04-16T16:29:02.677Z,8.85
2023-04-16T16:31:29.226Z,8.95
2023-04-16T16:33:55.752Z,9.73
2023-04-16T16:36:22.293Z,9.57
2023-04-16T16:38:48.819Z,8.55
2023-04-16T16:41:15.343Z,9.02
2023-04-16T16:43:41.865Z,9.38
2023-04-16T16:46:09.978Z,9.63
2023-04-16T16:48:36.878Z,8.82
2023-04-16T16:51:03.555Z,8.30
2023-04-16T16:53:30.329Z,9.25
2023-04-16T16:58:27.735Z,8.77
2023-04-16T17:00:54.344Z,8.18
2023-04-16T17:03:21.021Z,9.00
2023-04-16T17:08:15.045Z,8.35
2023-04-16T17:10:43.847Z,8.55
2023-04-16T17:13:10.773Z,10.57
2023-04-16T17:15:37.690Z,8.32
2023-04-16T17:18:06.793Z,8.85
2023-04-16T17:20:34.154Z,9.18
2023-04-16T17:23:01.189Z,8.48
2023-04-16T17:25:27.843Z,9.93
2023-04-16T17:27:54.453Z,8.85
2023-04-16T17:30:26.017Z,9.52
2023-04-16T17:32:52.980Z,8.23
2023-04-16T17:35:19.790Z,9.00
2023-04-16T17:40:14.571Z,8.18
2023-04-16T17:42:41.456Z,8.55
2023-04-16T17:47:36.415Z,8.82
2023-04-16T17:50:05.434Z,8.52
2023-04-16T17:52:32.188Z,8.00
2023-04-16T17:57:28.657Z,7.20
2023-04-16T17:59:55.457Z,8.70
2023-04-16T18:02:22.441Z,9.20
2023-04-16T18:04:51.640Z,7.80
2023-04-16T18:07:18.387Z,7.82
2023-04-16T18:09:45.018Z,8.60
2023-04-16T18:12:14.163Z,9.10
2023-04-16T18:14:40.801Z,9.02
2023-04-16T18:17:11.193Z,8.50
2023-04-16T18:19:39.487Z,8.65
2023-04-16T18:22:06.068Z,8.52
2023-04-16T18:24:35.376Z,8.38
2023-04-16T18:27:05.855Z,8.07
2023-04-16T18:29:34.092Z,9.30
2023-04-16T18:32:03.722Z,9.20
2023-04-16T18:34:31.657Z,9.27
2023-04-16T18:37:01.256Z,8.48
2023-04-16T18:39:27.912Z,9.48
2023-04-16T18:42:29.557Z,9.18
2023-04-16T18:44:56.501Z,8.65
2023-04-16T18:47:23.313Z,8.85
2023-04-16T18:52:16.654Z,7.63
2023-04-16T18:57:12.458Z,8.15
2023-04-16T18:59:39.010Z,7.70
2023-04-16T19:02:05.684Z,8.85
2023-04-16T19:06:58.904Z,7.28
2023-04-16T19:09:27.120Z,7.28
2023-04-16T19:11:58.951Z,7.45
2023-04-16T19:14:28.416Z,7.53
2023-04-16T19:16:58.786Z,7.13
2023-04-16T19:26:58.886Z,6.72
2023-04-16T19:29:25.764Z,7.25
2023-04-16T19:31:54.024Z,6.40
2023-04-16T19:34:23.449Z,7.43
2023-04-16T19:36:53.216Z,7.07
2023-04-16T19:39:24.127Z,6.25
2023-04-16T19:41:54.068Z,5.90
2023-04-16T19:44:27.960Z,7.45
2023-04-16T19:46:58.098Z,6.70
2023-04-16T19:49:40.298Z,7.28
2023-04-16T19:52:09.616Z,6.70
2023-04-16T19:54:48.692Z,5.82
2023-04-16T19:57:33.310Z,6.78
2023-04-16T20:00:14.890Z,8.50
2023-04-16T20:02:48.916Z,6.85
2023-04-16T20:05:32.595Z,8.02
2023-04-16T20:08:03.336Z,7.07
2023-04-16T20:10:33.043Z,7.13
2023-04-16T20:13:01.200Z,7.40
2023-04-16T20:15:39.704Z,7.15
2023-04-16T20:18:11.522Z,7.20
2023-04-16T20:20:41.881Z,7.82
2023-04-16T20:23:22.423Z,8.23
2023-04-16T20:25:53.435Z,7.78
2023-04-16T20:28:21.669Z,8.80
2023-04-16T20:31:00.978Z,8.30
2023-04-16T20:33:48.390Z,7.60
2023-04-16T20:36:33.215Z,8.27
2023-04-16T20:39:14.018Z,7.93
2023-04-16T20:41:44.021Z,8.25
2023-04-16T20:44:20.874Z,8.15
2023-04-16T20:46:57.177Z,8.32
2023-04-16T20:49:28.928Z,7.00
2023-04-16T20:51:58.583Z,8.50
2023-04-16T20:54:25.946Z,7.70
2023-04-16T20:57:21.074Z,7.80
2023-04-16T21:03:57.253Z,7.55
2023-04-16T21:06:50.579Z,8.35
2023-04-16T21:09:40.205Z,8.00
2023-04-16T21:12:38.056Z,7.55
2023-04-16T21:15:10.566Z,7.15
2023-04-16T21:17:46.638Z,8.73
2023-04-16T21:20:14.081Z,7.20
2023-04-16T21:22:40.794Z,7.53
2023-04-16T21:25:07.830Z,7.75
2023-04-16T21:27:34.335Z,7.72
2023-04-16T21:30:03.326Z,8.25
2023-04-16T21:32:29.801Z,8.43
2023-04-16T21:34:56.263Z,9.23
2023-04-16T21:37:22.729Z,8.77
2023-04-16T21:39:49.173Z,9.88
2023-04-16T21:42:15.656Z,8.90
2023-04-16T21:44:42.195Z,8.85
2023-04-16T21:47:08.682Z,8.07
2023-04-16T21:49:35.157Z,9.05
2023-04-16T21:52:02.525Z,10.25
2023-04-16T21:54:29.028Z,9.00
2023-04-16T21:56:55.493Z,8.85
2023-04-16T21:59:21.935Z,8.35
2023-04-16T22:01:48.418Z,9.00
2023-04-16T22:04:14.990Z,8.63
2023-04-16T22:06:41.510Z,9.20
2023-04-16T22:09:08.046Z,8.68
2023-04-16T22:11:34.476Z,9.52
2023-04-16T22:14:00.992Z,10.98
2023-04-16T22:16:28.773Z,9.85
2023-04-16T22:18:56.627Z,10.50
2023-04-16T22:21:23.245Z,9.50
2023-04-16T22:23:49.857Z,9.88
2023-04-16T22:26:16.493Z,10.25
2023-04-16T22:28:43.013Z,10.88
2023-04-16T22:31:10.170Z,9.88
2023-04-16T22:33:36.764Z,10.48
2023-04-16T22:36:03.478Z,11.00
2023-04-16T22:38:30.022Z,10.55
2023-04-16T22:40:56.484Z,10.57
2023-04-16T22:43:23.051Z,8.88
2023-04-16T22:45:49.662Z,10.40
2023-04-16T22:48:16.562Z,10.68
2023-04-16T22:50:48.357Z,10.75
2023-04-16T22:53:14.940Z,9.88
2023-04-16T22:55:41.453Z,10.68
2023-04-16T22:58:07.901Z,10.30
2023-04-16T23:00:34.341Z,9.80
2023-04-16T23:03:01.022Z,10.40
2023-04-16T23:07:54.055Z,10.68
2023-04-16T23:10:20.682Z,10.65
2023-04-16T23:12:47.198Z,10.02
2023-04-16T23:15:14.473Z,10.27
2023-04-16T23:17:43.847Z,10.38
2023-04-16T23:20:12.180Z,10.98
2023-04-16T23:22:39.332Z,10.55
2023-04-16T23:25:07.941Z,10.98
2023-04-16T23:27:35.316Z,10.45
2023-04-16T23:30:02.054Z,11.00
2023-04-16T23:34:55.200Z,10.77
2023-04-16T23:37:21.877Z,11.32
2023-04-16T23:42:14.810Z,11.93
2023-04-16T23:44:41.347Z,12.25
2023-04-16T23:47:07.889Z,10.90
2023-04-16T23:49:34.358Z,11.38
2023-04-16T23:52:00.971Z,12.23
2023-04-16T23:54:27.618Z,12.25
2023-04-16T23:56:54.129Z,11.60
2023-04-16T23:59:20.770Z,11.70
